sensor_id;sensor_type;location;lat;lon;timestamp;pressure;altitude;pressure_sealevel;temperature
14666;BMP280;7420;53.574;10.040;2023-12-20T00:00:37;8302.28;;;-136.87
14666;BMP280;7420;53.574;10.040;2023-12-20T00:03:03;8278.19;;;-136.87
14666;BMP280;7420;53.574;10.040;2023-12-20T00:05:29;8354.53;;;-136.87
14666;BMP280;7420;53.574;10.040;2023-12-20T00:07:57;8332.41;;;-136.87
14666;BMP280;7420;53.574;10.040;2023-12-20T00:10:22;8380.63;;;-136.87
14666;BMP280;7420;53.574;10.040;2023-12-20T00:12:47;8386.66;;;-136.87
14666;BMP280;7420;53.574;10.040;2023-12-20T00:15:13;8422.81;;;-136.87
14666;BMP280;7420;53.574;10.040;2023-12-20T00:17:38;8418.81;;;-136.87
14666;BMP280;7420;53.574;10.040;2023-12-20T00:20:04;8539.34;;;-136.87
14666;BMP280;7420;53.574;10.040;2023-12-20T00:22:31;8555.41;;;-136.87
14666;BMP280;7420;53.574;10.040;2023-12-20T00:24:56;8577.53;;;-136.87
14666;BMP280;7420;53.574;10.040;2023-12-20T00:27:21;8563.47;;;-136.87
14666;BMP280;7420;53.574;10.040;2023-12-20T00:29:48;8589.56;;;-136.87
14666;BMP280;7420;53.574;10.040;2023-12-20T00:32:15;8591.59;;;-136.87
14666;BMP280;7420;53.574;10.040;2023-12-20T00:34:40;8543.38;;;-136.87
14666;BMP280;7420;53.574;10.040;2023-12-20T00:37:06;8607.66;;;-136.87
14666;BMP280;7420;53.574;10.040;2023-12-20T00:39:31;8575.50;;;-136.87
14666;BMP280;7420;53.574;10.040;2023-12-20T00:41:58;8635.78;;;-136.87
14666;BMP280;7420;53.574;10.040;2023-12-20T00:44:23;8617.69;;;-136.87
14666;BMP280;7420;53.574;10.040;2023-12-20T00:46:49;8579.53;;;-136.87
14666;BMP280;7420;53.574;10.040;2023-12-20T00:49:14;8599.63;;;-136.87
14666;BMP280;7420;53.574;10.040;2023-12-20T00:51:39;8551.41;;;-136.87
14666;BMP280;7420;53.574;10.040;2023-12-20T00:54:05;8551.41;;;-136.87
14666;BMP280;7420;53.574;10.040;2023-12-20T00:56:30;8593.59;;;-136.87
14666;BMP280;7420;53.574;10.040;2023-12-20T00:58:55;8611.69;;;-136.87
14666;BMP280;7420;53.574;10.040;2023-12-20T01:01:21;8655.88;;;-136.87
14666;BMP280;7420;53.574;10.040;2023-12-20T01:03:46;8651.84;;;-136.87
14666;BMP280;7420;53.574;10.040;2023-12-20T01:06:12;8589.56;;;-136.87
14666;BMP280;7420;53.574;10.040;2023-12-20T01:08:37;8641.81;;;-136.87
14666;BMP280;7420;53.574;10.040;2023-12-20T01:11:05;8617.69;;;-136.87
14666;BMP280;7420;53.574;10.040;2023-12-20T01:13:31;8724.19;;;-136.87
14666;BMP280;7420;53.574;10.040;2023-12-20T01:15:56;8675.97;;;-136.87
14666;BMP280;7420;53.574;10.040;2023-12-20T01:18:22;8738.25;;;-136.87
14666;BMP280;7420;53.574;10.040;2023-12-20T01:20:47;8722.19;;;-136.87
14666;BMP280;7420;53.574;10.040;2023-12-20T01:23:12;8760.34;;;-136.87
14666;BMP280;7420;53.574;10.040;2023-12-20T01:25:39;8776.44;;;-136.87
14666;BMP280;7420;53.574;10.040;2023-12-20T01:28:04;8728.22;;;-136.87
14666;BMP280;7420;53.574;10.040;2023-12-20T01:30:29;8828.66;;;-136.87
14666;BMP280;7420;53.574;10.040;2023-12-20T01:32:55;8848.75;;;-136.87
14666;BMP280;7420;53.574;10.040;2023-12-20T01:35:20;8905.03;;;-136.87
14666;BMP280;7420;53.574;10.040;2023-12-20T01:37:45;8927.13;;;-136.87
14666;BMP280;7420;53.574;10.040;2023-12-20T01:40:11;8935.16;;;-136.87
14666;BMP280;7420;53.574;10.040;2023-12-20T01:42:36;8933.16;;;-136.87
14666;BMP280;7420;53.574;10.040;2023-12-20T01:45:02;8836.72;;;-136.87
14666;BMP280;7420;53.574;10.040;2023-12-20T01:47:28;8884.94;;;-136.87
14666;BMP280;7420;53.574;10.040;2023-12-20T01:49:53;8897.00;;;-136.87
14666;BMP280;7420;53.574;10.040;2023-12-20T01:52:20;8911.06;;;-136.87
14666;BMP280;7420;53.574;10.040;2023-12-20T01:54:45;8961.28;;;-136.87
14666;BMP280;7420;53.574;10.040;2023-12-20T01:57:12;8909.03;;;-136.87
14666;BMP280;7420;53.574;10.040;2023-12-20T02:02:05;8880.91;;;-136.87
14666;BMP280;7420;53.574;10.040;2023-12-20T02:04:30;8905.03;;;-136.87
14666;BMP280;7420;53.574;10.040;2023-12-20T02:06:57;8897.00;;;-136.87
14666;BMP280;7420;53.574;10.040;2023-12-20T02:09:24;8933.16;;;-136.87
14666;BMP280;7420;53.574;10.040;2023-12-20T02:11:49;8967.31;;;-136.87
14666;BMP280;7420;53.574;10.040;2023-12-20T02:14:14;8989.41;;;-136.87
14666;BMP280;7420;53.574;10.040;2023-12-20T02:16:40;9013.53;;;-136.87
14666;BMP280;7420;53.574;10.040;2023-12-20T02:19:13;8973.34;;;-136.87
14666;BMP280;7420;53.574;10.040;2023-12-20T02:21:39;8947.22;;;-136.87
14666;BMP280;7420;53.574;10.040;2023-12-20T02:24:04;8993.44;;;-136.87
14666;BMP280;7420;53.574;10.040;2023-12-20T02:26:32;9027.59;;;-136.87
14666;BMP280;7420;53.574;10.040;2023-12-20T02:28:58;8925.13;;;-136.87
14666;BMP280;7420;53.574;10.040;2023-12-20T02:31:23;8927.13;;;-136.87
14666;BMP280;7420;53.574;10.040;2023-12-20T02:33:49;8975.34;;;-136.87
14666;BMP280;7420;53.574;10.040;2023-12-20T02:36:14;8919.09;;;-136.87
14666;BMP280;7420;53.574;10.040;2023-12-20T02:38:40;8890.97;;;-136.87
14666;BMP280;7420;53.574;10.040;2023-12-20T02:41:05;8957.28;;;-136.87
14666;BMP280;7420;53.574;10.040;2023-12-20T02:43:30;8973.34;;;-136.87
14666;BMP280;7420;53.574;10.040;2023-12-20T02:45:56;8888.94;;;-136.87
14666;BMP280;7420;53.574;10.040;2023-12-20T02:48:22;8836.72;;;-136.87
14666;BMP280;7420;53.574;10.040;2023-12-20T02:50:47;8828.66;;;-136.87
14666;BMP280;7420;53.574;10.040;2023-12-20T02:53:14;8782.47;;;-136.87
14666;BMP280;7420;53.574;10.040;2023-12-20T02:55:39;8764.38;;;-136.87
14666;BMP280;7420;53.574;10.040;2023-12-20T02:58:05;8732.22;;;-136.87
14666;BMP280;7420;53.574;10.040;2023-12-20T03:00:30;8724.19;;;-136.87
14666;BMP280;7420;53.574;10.040;2023-12-20T03:02:55;8756.34;;;-136.87
14666;BMP280;7420;53.574;10.040;2023-12-20T03:05:21;8836.72;;;-136.87
14666;BMP280;7420;53.574;10.040;2023-12-20T03:07:46;8748.31;;;-136.87
14666;BMP280;7420;53.574;10.040;2023-12-20T03:10:12;8830.69;;;-136.87
14666;BMP280;7420;53.574;10.040;2023-12-20T03:12:37;8798.53;;;-136.87
14666;BMP280;7420;53.574;10.040;2023-12-20T03:15:03;8856.81;;;-136.87
14666;BMP280;7420;53.574;10.040;2023-12-20T03:17:28;8868.84;;;-136.87
14666;BMP280;7420;53.574;10.040;2023-12-20T03:19:53;8878.91;;;-136.87
14666;BMP280;7420;53.574;10.040;2023-12-20T03:22:19;8886.94;;;-136.87
14666;BMP280;7420;53.574;10.040;2023-12-20T03:24:44;8901.00;;;-136.87
14666;BMP280;7420;53.574;10.040;2023-12-20T03:27:09;8901.00;;;-136.87
14666;BMP280;7420;53.574;10.040;2023-12-20T03:29:35;8892.97;;;-136.87
14666;BMP280;7420;53.574;10.040;2023-12-20T03:32:00;8848.75;;;-136.87
14666;BMP280;7420;53.574;10.040;2023-12-20T03:34:26;8804.56;;;-136.87
14666;BMP280;7420;53.574;10.040;2023-12-20T03:36:51;8792.50;;;-136.87
14666;BMP280;7420;53.574;10.040;2023-12-20T03:39:17;8909.03;;;-136.87
14666;BMP280;7420;53.574;10.040;2023-12-20T03:41:42;8903.00;;;-136.87
14666;BMP280;7420;53.574;10.040;2023-12-20T03:44:08;8969.31;;;-136.87
14666;BMP280;7420;53.574;10.040;2023-12-20T03:46:33;8973.34;;;-136.87
14666;BMP280;7420;53.574;10.040;2023-12-20T03:48:58;8876.91;;;-136.87
14666;BMP280;7420;53.574;10.040;2023-12-20T03:51:24;8933.16;;;-136.87
14666;BMP280;7420;53.574;10.040;2023-12-20T03:53:49;8975.34;;;-136.87
14666;BMP280;7420;53.574;10.040;2023-12-20T03:56:14;8945.22;;;-136.87
14666;BMP280;7420;53.574;10.040;2023-12-20T03:58:40;8945.22;;;-136.87
14666;BMP280;7420;53.574;10.040;2023-12-20T04:01:09;8927.13;;;-136.87
14666;BMP280;7420;53.574;10.040;2023-12-20T04:03:36;8876.91;;;-136.87
14666;BMP280;7420;53.574;10.040;2023-12-20T04:06:02;8794.50;;;-136.87
14666;BMP280;7420;53.574;10.040;2023-12-20T04:08:27;8840.72;;;-136.87
14666;BMP280;7420;53.574;10.040;2023-12-20T04:10:52;8788.47;;;-136.87
14666;BMP280;7420;53.574;10.040;2023-12-20T04:13:18;8782.47;;;-136.87
14666;BMP280;7420;53.574;10.040;2023-12-20T04:15:43;8780.44;;;-136.87
14666;BMP280;7420;53.574;10.040;2023-12-20T04:18:09;8816.63;;;-136.87
14666;BMP280;7420;53.574;10.040;2023-12-20T04:20:34;8732.22;;;-136.87
14666;BMP280;7420;53.574;10.040;2023-12-20T04:22:59;8764.38;;;-136.87
14666;BMP280;7420;53.574;10.040;2023-12-20T04:25:25;8792.50;;;-136.87
14666;BMP280;7420;53.574;10.040;2023-12-20T04:27:50;8756.34;;;-136.87
14666;BMP280;7420;53.574;10.040;2023-12-20T04:30:15;8790.50;;;-136.87
14666;BMP280;7420;53.574;10.040;2023-12-20T04:32:41;8780.44;;;-136.87
14666;BMP280;7420;53.574;10.040;2023-12-20T04:35:06;8834.69;;;-136.87
14666;BMP280;7420;53.574;10.040;2023-12-20T04:37:33;8750.31;;;-136.87
14666;BMP280;7420;53.574;10.040;2023-12-20T04:39:59;8808.56;;;-136.87
14666;BMP280;7420;53.574;10.040;2023-12-20T04:42:24;8738.25;;;-136.87
14666;BMP280;7420;53.574;10.040;2023-12-20T04:44:49;8828.66;;;-136.87
14666;BMP280;7420;53.574;10.040;2023-12-20T04:47:15;8772.41;;;-136.87
14666;BMP280;7420;53.574;10.040;2023-12-20T04:49:40;8816.63;;;-136.87
14666;BMP280;7420;53.574;10.040;2023-12-20T04:52:05;8828.66;;;-136.87
14666;BMP280;7420;53.574;10.040;2023-12-20T04:54:31;8706.09;;;-136.87
14666;BMP280;7420;53.574;10.040;2023-12-20T04:56:56;8756.34;;;-136.87
14666;BMP280;7420;53.574;10.040;2023-12-20T04:59:22;8742.28;;;-136.87
14666;BMP280;7420;53.574;10.040;2023-12-20T05:01:47;8663.91;;;-136.87
14666;BMP280;7420;53.574;10.040;2023-12-20T05:04:12;8692.03;;;-136.87
14666;BMP280;7420;53.574;10.040;2023-12-20T05:06:38;8682.00;;;-136.87
14666;BMP280;7420;53.574;10.040;2023-12-20T05:09:03;8613.69;;;-136.87
14666;BMP280;7420;53.574;10.040;2023-12-20T05:11:29;8623.72;;;-136.87
14666;BMP280;7420;53.574;10.040;2023-12-20T05:13:54;8567.47;;;-136.87
14666;BMP280;7420;53.574;10.040;2023-12-20T05:16:19;8613.69;;;-136.87
14666;BMP280;7420;53.574;10.040;2023-12-20T05:18:48;8663.91;;;-136.87
14666;BMP280;7420;53.574;10.040;2023-12-20T05:21:15;8623.72;;;-136.87
14666;BMP280;7420;53.574;10.040;2023-12-20T05:23:40;8627.75;;;-136.87
14666;BMP280;7420;53.574;10.040;2023-12-20T05:26:06;8539.34;;;-136.87
14666;BMP280;7420;53.574;10.040;2023-12-20T05:28:31;8607.66;;;-136.87
14666;BMP280;7420;53.574;10.040;2023-12-20T05:30:57;8599.63;;;-136.87
14666;BMP280;7420;53.574;10.040;2023-12-20T05:33:22;8523.28;;;-136.87
14666;BMP280;7420;53.574;10.040;2023-12-20T05:35:47;8475.06;;;-136.87
14666;BMP280;7420;53.574;10.040;2023-12-20T05:38:13;8505.19;;;-136.87
14666;BMP280;7420;53.574;10.040;2023-12-20T05:40:38;8499.16;;;-136.87
14666;BMP280;7420;53.574;10.040;2023-12-20T05:43:03;8495.16;;;-136.87
14666;BMP280;7420;53.574;10.040;2023-12-20T05:45:29;8577.53;;;-136.87
14666;BMP280;7420;53.574;10.040;2023-12-20T05:47:54;8561.44;;;-136.87
14666;BMP280;7420;53.574;10.040;2023-12-20T05:50:20;8565.47;;;-136.87
14666;BMP280;7420;53.574;10.040;2023-12-20T05:52:46;8535.31;;;-136.87
14666;BMP280;7420;53.574;10.040;2023-12-20T05:55:11;8567.47;;;-136.87
14666;BMP280;7420;53.574;10.040;2023-12-20T05:57:37;8621.72;;;-136.87
14666;BMP280;7420;53.574;10.040;2023-12-20T06:00:02;8639.81;;;-136.87
14666;BMP280;7420;53.574;10.040;2023-12-20T06:02:28;8611.69;;;-136.87
14666;BMP280;7420;53.574;10.040;2023-12-20T06:04:54;8605.66;;;-136.87
14666;BMP280;7420;53.574;10.040;2023-12-20T06:07:19;8573.50;;;-136.87
14666;BMP280;7420;53.574;10.040;2023-12-20T06:09:45;8471.03;;;-136.87
14666;BMP280;7420;53.574;10.040;2023-12-20T06:12:11;8523.28;;;-136.87
14666;BMP280;7420;53.574;10.040;2023-12-20T06:14:36;8515.25;;;-136.87
14666;BMP280;7420;53.574;10.040;2023-12-20T06:17:02;8505.19;;;-136.87
14666;BMP280;7420;53.574;10.040;2023-12-20T06:19:27;8509.22;;;-136.87
14666;BMP280;7420;53.574;10.040;2023-12-20T06:21:53;8579.53;;;-136.87
14666;BMP280;7420;53.574;10.040;2023-12-20T06:24:18;8535.31;;;-136.87
14666;BMP280;7420;53.574;10.040;2023-12-20T06:26:43;8539.34;;;-136.87
14666;BMP280;7420;53.574;10.040;2023-12-20T06:29:09;8561.44;;;-136.87
14666;BMP280;7420;53.574;10.040;2023-12-20T06:31:34;8475.06;;;-136.87
14666;BMP280;7420;53.574;10.040;2023-12-20T06:34:00;8404.75;;;-136.87
14666;BMP280;7420;53.574;10.040;2023-12-20T06:36:26;8412.78;;;-136.87
14666;BMP280;7420;53.574;10.040;2023-12-20T06:38:52;8426.84;;;-136.87
14666;BMP280;7420;53.574;10.040;2023-12-20T06:41:18;8416.78;;;-136.87
14666;BMP280;7420;53.574;10.040;2023-12-20T06:43:43;8368.59;;;-136.87
14666;BMP280;7420;53.574;10.040;2023-12-20T06:46:08;8396.72;;;-136.87
14666;BMP280;7420;53.574;10.040;2023-12-20T06:48:34;8404.75;;;-136.87
14666;BMP280;7420;53.574;10.040;2023-12-20T06:51:00;8444.91;;;-136.87
14666;BMP280;7420;53.574;10.040;2023-12-20T06:53:29;8422.81;;;-136.87
14666;BMP280;7420;53.574;10.040;2023-12-20T06:55:54;8380.63;;;-136.87
14666;BMP280;7420;53.574;10.040;2023-12-20T06:58:21;8440.91;;;-136.87
14666;BMP280;7420;53.574;10.040;2023-12-20T07:00:46;8471.03;;;-136.87
14666;BMP280;7420;53.574;10.040;2023-12-20T07:03:12;8501.19;;;-136.87
14666;BMP280;7420;53.574;10.040;2023-12-20T07:05:37;8507.19;;;-136.87
14666;BMP280;7420;53.574;10.040;2023-12-20T07:08:03;8454.97;;;-136.87
14666;BMP280;7420;53.574;10.040;2023-12-20T07:10:28;8495.16;;;-136.87
14666;BMP280;7420;53.574;10.040;2023-12-20T07:12:53;8473.06;;;-136.87
14666;BMP280;7420;53.574;10.040;2023-12-20T07:15:21;8483.09;;;-136.87
14666;BMP280;7420;53.574;10.040;2023-12-20T07:17:46;8434.88;;;-136.87
14666;BMP280;7420;53.574;10.040;2023-12-20T07:20:11;8432.88;;;-136.87
14666;BMP280;7420;53.574;10.040;2023-12-20T07:22:37;8436.88;;;-136.87
14666;BMP280;7420;53.574;10.040;2023-12-20T07:25:02;8372.59;;;-136.87
14666;BMP280;7420;53.574;10.040;2023-12-20T07:27:29;8378.63;;;-136.87
14666;BMP280;7420;53.574;10.040;2023-12-20T07:29:54;8352.50;;;-136.87
14666;BMP280;7420;53.574;10.040;2023-12-20T07:32:19;8332.41;;;-136.87
14666;BMP280;7420;53.574;10.040;2023-12-20T07:34:45;8312.34;;;-136.87
14666;BMP280;7420;53.574;10.040;2023-12-20T07:37:10;8306.31;;;-136.87
14666;BMP280;7420;53.574;10.040;2023-12-20T07:39:37;8242.03;;;-136.87
14666;BMP280;7420;53.574;10.040;2023-12-20T07:42:03;8209.88;;;-136.87
14666;BMP280;7420;53.574;10.040;2023-12-20T07:44:28;8227.97;;;-136.87
14666;BMP280;7420;53.574;10.040;2023-12-20T07:46:53;8123.50;;;-136.87
14666;BMP280;7420;53.574;10.040;2023-12-20T07:49:19;8143.59;;;-136.87
14666;BMP280;7420;53.574;10.040;2023-12-20T07:51:44;8223.94;;;-136.87
14666;BMP280;7420;53.574;10.040;2023-12-20T07:54:10;8221.94;;;-136.87
14666;BMP280;7420;53.574;10.040;2023-12-20T07:56:35;8197.81;;;-136.87
14666;BMP280;7420;53.574;10.040;2023-12-20T07:59:00;8189.78;;;-136.87
14666;BMP280;7420;53.574;10.040;2023-12-20T08:01:26;8153.63;;;-136.87
14666;BMP280;7420;53.574;10.040;2023-12-20T08:03:52;8125.50;;;-136.87
14666;BMP280;7420;53.574;10.040;2023-12-20T08:06:17;8135.56;;;-136.87
14666;BMP280;7420;53.574;10.040;2023-12-20T08:08:43;8053.19;;;-136.87
14666;BMP280;7420;53.574;10.040;2023-12-20T08:11:08;8061.22;;;-136.87
14666;BMP280;7420;53.574;10.040;2023-12-20T08:13:33;7920.63;;;-136.87
14666;BMP280;7420;53.574;10.040;2023-12-20T08:15:59;7954.78;;;-136.87
14666;BMP280;7420;53.574;10.040;2023-12-20T08:18:24;7950.75;;;-136.87
14666;BMP280;7420;53.574;10.040;2023-12-20T08:20:50;7944.72;;;-136.87
14666;BMP280;7420;53.574;10.040;2023-12-20T08:23:17;7892.50;;;-136.87
14666;BMP280;7420;53.574;10.040;2023-12-20T08:25:43;7820.19;;;-136.87
14666;BMP280;7420;53.574;10.040;2023-12-20T08:28:08;7868.41;;;-136.87
14666;BMP280;7420;53.574;10.040;2023-12-20T08:30:34;7820.19;;;-136.87
14666;BMP280;7420;53.574;10.040;2023-12-20T08:33:00;7753.91;;;-136.87
14666;BMP280;7420;53.574;10.040;2023-12-20T08:35:26;7802.13;;;-136.87
14666;BMP280;7420;53.574;10.040;2023-12-20T08:37:51;7711.72;;;-136.87
14666;BMP280;7420;53.574;10.040;2023-12-20T08:40:17;7713.75;;;-136.87
14666;BMP280;7420;53.574;10.040;2023-12-20T08:42:42;7633.41;;;-136.87
14666;BMP280;7420;53.574;10.040;2023-12-20T08:45:08;7683.63;;;-136.87
14666;BMP280;7420;53.574;10.040;2023-12-20T08:47:33;7649.47;;;-136.87
14666;BMP280;7420;53.574;10.040;2023-12-20T08:49:59;7627.38;;;-136.87
14666;BMP280;7420;53.574;10.040;2023-12-20T08:52:25;7651.47;;;-136.87
14666;BMP280;7420;53.574;10.040;2023-12-20T08:54:52;7751.91;;;-136.87
14666;BMP280;7420;53.574;10.040;2023-12-20T08:57:22;7874.44;;;-136.87
14666;BMP280;7420;53.574;10.040;2023-12-20T08:59:49;7814.16;;;-136.87
14666;BMP280;7420;53.574;10.040;2023-12-20T09:02:16;7876.44;;;-136.87
14666;BMP280;7420;53.574;10.040;2023-12-20T09:04:41;7920.63;;;-136.87
14666;BMP280;7420;53.574;10.040;2023-12-20T09:07:06;7956.78;;;-136.87
14666;BMP280;7420;53.574;10.040;2023-12-20T09:09:32;8002.97;;;-136.87
14666;BMP280;7420;53.574;10.040;2023-12-20T09:11:58;8033.09;;;-136.87
14666;BMP280;7420;53.574;10.040;2023-12-20T09:14:24;8061.22;;;-136.87
14666;BMP280;7420;53.574;10.040;2023-12-20T09:16:49;8163.69;;;-136.87
14666;BMP280;7420;53.574;10.040;2023-12-20T09:19:17;8115.47;;;-136.87
14666;BMP280;7420;53.574;10.040;2023-12-20T09:21:42;8127.53;;;-136.87
14666;BMP280;7420;53.574;10.040;2023-12-20T09:24:07;8137.56;;;-136.87
14666;BMP280;7420;53.574;10.040;2023-12-20T09:26:34;8179.75;;;-136.87
14666;BMP280;7420;53.574;10.040;2023-12-20T09:28:59;8181.75;;;-136.87
14666;BMP280;7420;53.574;10.040;2023-12-20T09:31:25;8252.06;;;-136.87
14666;BMP280;7420;53.574;10.040;2023-12-20T09:33:50;8268.13;;;-136.87
14666;BMP280;7420;53.574;10.040;2023-12-20T09:36:15;8312.34;;;-136.87
14666;BMP280;7420;53.574;10.040;2023-12-20T09:38:41;8290.22;;;-136.87
14666;BMP280;7420;53.574;10.040;2023-12-20T09:41:07;8209.88;;;-136.87
14666;BMP280;7420;53.574;10.040;2023-12-20T09:43:35;8238.00;;;-136.87
14666;BMP280;7420;53.574;10.040;2023-12-20T09:46:05;8133.53;;;-136.87
14666;BMP280;7420;53.574;10.040;2023-12-20T09:48:31;8105.41;;;-136.87
14666;BMP280;7420;53.574;10.040;2023-12-20T09:50:56;8103.41;;;-136.87
14666;BMP280;7420;53.574;10.040;2023-12-20T09:53:22;8246.03;;;-136.87
14666;BMP280;7420;53.574;10.040;2023-12-20T09:55:57;8330.41;;;-136.87
14666;BMP280;7420;53.574;10.040;2023-12-20T09:58:23;8394.69;;;-136.87
14666;BMP280;7420;53.574;10.040;2023-12-20T10:00:48;8454.97;;;-136.87
14666;BMP280;7420;53.574;10.040;2023-12-20T10:03:14;8499.16;;;-136.87
14666;BMP280;7420;53.574;10.040;2023-12-20T10:05:43;8475.06;;;-136.87
14666;BMP280;7420;53.574;10.040;2023-12-20T10:08:09;8537.34;;;-136.87
14666;BMP280;7420;53.574;10.040;2023-12-20T10:10:34;8525.28;;;-136.87
14666;BMP280;7420;53.574;10.040;2023-12-20T10:13:07;8527.28;;;-136.87
14666;BMP280;7420;53.574;10.040;2023-12-20T10:15:34;8627.75;;;-136.87
14666;BMP280;7420;53.574;10.040;2023-12-20T10:18:00;8655.88;;;-136.87
14666;BMP280;7420;53.574;10.040;2023-12-20T10:20:26;8728.22;;;-136.87
14666;BMP280;7420;53.574;10.040;2023-12-20T10:22:54;8754.31;;;-136.87
14666;BMP280;7420;53.574;10.040;2023-12-20T10:25:20;8770.41;;;-136.87
14666;BMP280;7420;53.574;10.040;2023-12-20T10:27:46;8758.34;;;-136.87
14666;BMP280;7420;53.574;10.040;2023-12-20T10:30:12;8740.25;;;-136.87
14666;BMP280;7420;53.574;10.040;2023-12-20T10:32:37;8736.25;;;-136.87
14666;BMP280;7420;53.574;10.040;2023-12-20T10:35:03;8736.25;;;-136.87
14666;BMP280;7420;53.574;10.040;2023-12-20T10:37:29;8673.97;;;-136.87
14666;BMP280;7420;53.574;10.040;2023-12-20T10:39:55;8680.00;;;-136.87
14666;BMP280;7420;53.574;10.040;2023-12-20T10:42:27;8627.75;;;-136.87
14666;BMP280;7420;53.574;10.040;2023-12-20T10:44:52;8675.97;;;-136.87
14666;BMP280;7420;53.574;10.040;2023-12-20T10:47:21;8764.38;;;-136.87
14666;BMP280;7420;53.574;10.040;2023-12-20T10:49:46;8774.41;;;-136.87
14666;BMP280;7420;53.574;10.040;2023-12-20T10:52:12;8696.06;;;-136.87
14666;BMP280;7420;53.574;10.040;2023-12-20T10:54:41;8563.47;;;-136.87
14666;BMP280;7420;53.574;10.040;2023-12-20T10:57:07;8653.88;;;-136.87
14666;BMP280;7420;53.574;10.040;2023-12-20T10:59:39;8649.84;;;-136.87
14666;BMP280;7420;53.574;10.040;2023-12-20T11:02:05;8758.34;;;-136.87
14666;BMP280;7420;53.574;10.040;2023-12-20T11:04:44;8700.06;;;-136.87
14666;BMP280;7420;53.574;10.040;2023-12-20T11:07:20;8716.16;;;-136.87
14666;BMP280;7420;53.574;10.040;2023-12-20T11:09:57;8730.22;;;-136.87
14666;BMP280;7420;53.574;10.040;2023-12-20T11:12:46;8708.13;;;-136.87
14666;BMP280;7420;53.574;10.040;2023-12-20T11:15:13;8627.75;;;-136.87
14666;BMP280;7420;53.574;10.040;2023-12-20T11:17:40;8607.66;;;-136.87
14666;BMP280;7420;53.574;10.040;2023-12-20T11:20:07;8649.84;;;-136.87
14666;BMP280;7420;53.574;10.040;2023-12-20T11:22:35;8647.84;;;-136.87
14666;BMP280;7420;53.574;10.040;2023-12-20T11:25:10;8748.31;;;-136.87
14666;BMP280;7420;53.574;10.040;2023-12-20T11:27:40;8708.13;;;-136.87
14666;BMP280;7420;53.574;10.040;2023-12-20T11:30:06;8653.88;;;-136.87
14666;BMP280;7420;53.574;10.040;2023-12-20T11:32:35;8619.72;;;-136.87
14666;BMP280;7420;53.574;10.040;2023-12-20T11:35:17;8794.50;;;-136.87
14666;BMP280;7420;53.574;10.040;2023-12-20T11:37:42;9069.78;;;-136.87
14666;BMP280;7420;53.574;10.040;2023-12-20T11:40:11;9025.59;;;-136.87
14666;BMP280;7420;53.574;10.040;2023-12-20T11:42:44;9103.97;;;-136.87
14666;BMP280;7420;53.574;10.040;2023-12-20T11:45:10;9114.00;;;-136.87
14666;BMP280;7420;53.574;10.040;2023-12-20T11:47:37;8931.16;;;-136.87
14666;BMP280;7420;53.574;10.040;2023-12-20T11:50:02;8816.63;;;-136.87
14666;BMP280;7420;53.574;10.040;2023-12-20T11:52:30;8752.31;;;-136.87
14666;BMP280;7420;53.574;10.040;2023-12-20T11:54:56;7573.16;;;-136.87
14666;BMP280;7420;53.574;10.040;2023-12-20T11:57:22;7990.94;;;-136.87
14666;BMP280;7420;53.574;10.040;2023-12-20T11:59:47;8567.47;;;-136.87
14666;BMP280;7420;53.574;10.040;2023-12-20T12:02:13;8675.97;;;-136.87
14666;BMP280;7420;53.574;10.040;2023-12-20T12:04:41;8732.22;;;-136.87
14666;BMP280;7420;53.574;10.040;2023-12-20T12:07:06;8740.25;;;-136.87
14666;BMP280;7420;53.574;10.040;2023-12-20T12:09:32;8661.91;;;-136.87
14666;BMP280;7420;53.574;10.040;2023-12-20T12:11:58;8631.75;;;-136.87
14666;BMP280;7420;53.574;10.040;2023-12-20T12:14:23;8422.81;;;-136.87
14666;BMP280;7420;53.574;10.040;2023-12-20T12:16:49;5884.66;;;-136.87
14666;BMP280;7420;53.574;10.040;2023-12-20T12:19:25;4764.91;;;-136.87
14666;BMP280;7420;53.574;10.040;2023-12-20T12:22:04;4229.28;;;-136.87
14666;BMP280;7420;53.574;10.040;2023-12-20T12:24:31;3575.44;;;-136.87
14666;BMP280;7420;53.574;10.040;2023-12-20T12:26:57;1799.22;;;-136.87
14666;BMP280;7420;53.574;10.040;2023-12-20T12:29:23;1955.56;;;-136.87
14666;BMP280;7420;53.574;10.040;2023-12-20T12:31:50;2590.97;;;-136.87
14666;BMP280;7420;53.574;10.040;2023-12-20T12:34:15;1624.88;;;-136.87
14666;BMP280;7420;53.574;10.040;2023-12-20T12:36:41;927.59;;;-136.87
14666;BMP280;7420;53.574;10.040;2023-12-20T12:39:06;-314.25;;;-136.87
14666;BMP280;7420;53.574;10.040;2023-12-20T12:41:32;1089.88;;;-136.87
14666;BMP280;7420;53.574;10.040;2023-12-20T12:43:57;583.03;;;-136.87
14666;BMP280;7420;53.574;10.040;2023-12-20T12:46:22;-204.13;;;-136.87
14666;BMP280;7420;53.574;10.040;2023-12-20T12:48:48;3128.28;;;-136.87
14666;BMP280;7420;53.574;10.040;2023-12-20T12:51:14;5465.19;;;-136.87
14666;BMP280;7420;53.574;10.040;2023-12-20T12:53:39;6711.69;;;-136.87
14666;BMP280;7420;53.574;10.040;2023-12-20T12:56:06;5685.94;;;-136.87
14666;BMP280;7420;53.574;10.040;2023-12-20T12:58:32;3798.06;;;-136.87
14666;BMP280;7420;53.574;10.040;2023-12-20T13:00:57;4626.47;;;-136.87
14666;BMP280;7420;53.574;10.040;2023-12-20T13:03:22;5667.88;;;-136.87
14666;BMP280;7420;53.574;10.040;2023-12-20T13:05:48;4247.34;;;-136.87
14666;BMP280;7420;53.574;10.040;2023-12-20T13:08:14;5523.38;;;-136.87
14666;BMP280;7420;53.574;10.040;2023-12-20T13:10:40;4449.94;;;-136.87
14666;BMP280;7420;53.574;10.040;2023-12-20T13:13:05;4809.03;;;-136.87
14666;BMP280;7420;53.574;10.040;2023-12-20T13:15:31;5258.50;;;-136.87
14666;BMP280;7420;53.574;10.040;2023-12-20T13:17:56;4279.44;;;-136.87
14666;BMP280;7420;53.574;10.040;2023-12-20T13:20:21;4650.56;;;-136.87
14666;BMP280;7420;53.574;10.040;2023-12-20T13:22:47;4993.63;;;-136.87
14666;BMP280;7420;53.574;10.040;2023-12-20T13:25:13;3411.00;;;-136.87
14666;BMP280;7420;53.574;10.040;2023-12-20T13:27:38;3547.38;;;-136.87
14666;BMP280;7420;53.574;10.040;2023-12-20T13:30:05;3360.88;;;-136.87
14666;BMP280;7420;53.574;10.040;2023-12-20T13:32:31;4801.03;;;-136.87
14666;BMP280;7420;53.574;10.040;2023-12-20T13:34:56;5005.69;;;-136.87
14666;BMP280;7420;53.574;10.040;2023-12-20T13:37:22;5993.03;;;-136.87
14666;BMP280;7420;53.574;10.040;2023-12-20T13:39:47;6559.13;;;-136.87
14666;BMP280;7420;53.574;10.040;2023-12-20T13:42:13;7055.03;;;-136.87
14666;BMP280;7420;53.574;10.040;2023-12-20T13:44:39;6820.13;;;-136.87
14666;BMP280;7420;53.574;10.040;2023-12-20T13:47:05;7338.19;;;-136.87
14666;BMP280;7420;53.574;10.040;2023-12-20T13:49:31;7571.16;;;-136.87
14666;BMP280;7420;53.574;10.040;2023-12-20T13:51:56;7691.66;;;-136.87